Groton, NY

7:36 AM EDT on August 22, 2014 (GMT -0400)
Millbrook Farms | Change Station
CLOSE
Current Station
Personal Weather Station
Location: Freeville, NY
Elevation: 1430 ft
Nearby Weather Stations

Elev 1430 ft 42.56 °N, 76.32 °W | Updated 48 seconds ago

Patches of Fog
Patches Fog
63.6 °F
Feels Like 63.6 °F
N
0.0
Wind Variable Wind from SE
Gusts 0.0 mph

Today
High -- | Low -- °F
--% Chance of Precip.
Yesterday
High -- | Low -- °F
Precip. -- in
6:19 AM 7:56 PM
Waning Crescent, 9% visible
Pressure 30.00 in
Visibility 10.0 miles
Clouds Few 200 ft
Mostly Cloudy 7000 ft
Dew Point 63 °F
Humidity 99%
Rainfall 0.00 in
Snow Depth Not available.
UV 0 out of 12
Pollen 7.60 out of 12
Air Quality Not available.
Flu Activity Not available.
METAR KITH 221056Z 08004KT 10SM BCFG FEW002 BKN070 17/17 A3002 RMK AO2 T01720172 SLP159

More Conditions Fewer Conditions

Pressure 30.00 in
Visibility 10.0 miles
Clouds Few 200 ft
Mostly Cloudy 7000 ft
Dew Point 63 °F
Humidity 99%
Rainfall 0.00 in
Snow Depth Not available.
UV 0 out of 12
Pollen 7.60 out of 12
Air Quality Not available.
Flu Activity Not available.
METAR KITH 221056Z 08004KT 10SM BCFG FEW002 BKN070 17/17 A3002 RMK AO2 T01720172 SLP159

More Conditions Fewer Conditions

10-Day Weather Forecast

Almanac

Astronomy

Aug. 22, 2014 Rise Set
Actual Time 6:19 AM EDT 7:56 PM EDT
Civil Twilight 5:49 AM EDT 8:26 PM EDT
Nautical Twilight 5:13 AM EDT 9:01 PM EDT
Astronomical Twilight 4:35 AM EDT 9:40 PM EDT
Moon 3:38 AM EDT 6:04 PM EDT
Length of Visible Light 14h 36m
Length of Day
13h 36m
Tomorrow will be 2m 40s shorter.
Waning Crescent, 9% of the Moon is Illuminated
Today
Waning Crescent
Aug 25
New
Sep 2
First Quarter
Sep 8
Full
Sep 15
Last Quarter

Today's Extremes

State Highs State Lows

Community

WunderPhotos

Upload Photos

1,746,150 photos uploaded!

WunderBlogs® & News

By Dr. Jeff Masters
Director of Meteorology, Weather Underground
By Kari Strenfel
Meteorologist, Weather Underground
By Christopher C. Burt
Weather Historian, Weather Underground
August 22, 2014
August 22, 2014
August 22, 2014

Nearby

Air Quality

  Air Quality AQ Index Pollutant
Friday Good
OZONE
Friday Good
PM2.5

Snow Depth

Station Depth Elevation
No new snow has been reported.

Earthquake Activity

City Distance Mag. Time & Date
No recent earthquake activity has been reported nearby.
Minimum magnitude displayed is 2.5.

Coastal Water Temperatures

Place Temperature
No Stations Reporting

Nearby Weather Stations